Tibooburra, Australia
Current Conditions -  °F | °C
As of 1:00 AM on Saturday 20 Dec 2014 (Local Time) from YBHI Reporting Station
Clear Clear  
Wind Chill: 66°   Ceiling: Unl
Heat Index: 66°   Visibility: 6mi
Dew Point: 32°   Wind: 8mph
Humidity: 28%   Direction: 150°SSE
Pressure: 30.06"   Gusts: NA
Location:  29.43°S, 142.01°E
Report Text: YBHI 191400Z AUTO 15007KT 9999 // NCD 19/00 Q1018
Loading
Personal Weather Stations






























Interactive Weather Map New forecast layout! Learn more

10-Day Weather Forecast

Advertisements
Track Severe Weather on mobile